FXMM

Moshoeshoe I International Airport

Maseru, Lesotho
METAR FXMM 210800Z 00000KT 9999 FEW035 17/10 Q1023 NOSIG
Observed Flight Rules
Apr-21 @ 08:00 UTC (2 hours ago) Visual Flight Rules
Visibility Clouds
10,000+ meters
  • Few at 3,500' AGL
Temperatures Readings
Current 17°C / 63°F
Dewpoint 10°C / 50°F
Humidity 64%
Altimeter 30.21" Hg
Pressure 1023 hPa
Elevation 1631
METAR FXMM 210800Z 00000KT 9999 FEW035 17/10 Q1023 NOSIG
Observed Flight Rules
Apr-21 @ 08:00 UTC
(2 hours ago)
VFR
Clouds
  • Few at 3,500' AGL
Temperature Dewpoint
17°C / 63°F 10°C / 50°F
Humidity Altimeter Pressure
64% 30.21" Hg 1023 hPa